sensor_id;sensor_type;location;lat;lon;timestamp;P1;durP1;ratioP1;P2;durP2;ratioP2
7831;SDS011;3961;42.058;25.586;2024-03-23T00:55:48;8.43;;;4.90;;
7831;SDS011;3961;42.058;25.586;2024-03-23T00:58:13;7.13;;;5.20;;
7831;SDS011;3961;42.058;25.586;2024-03-23T01:00:39;8.00;;;5.70;;
7831;SDS011;3961;42.058;25.586;2024-03-23T01:03:04;7.97;;;5.77;;
7831;SDS011;3961;42.058;25.586;2024-03-23T01:05:29;9.27;;;6.30;;
7831;SDS011;3961;42.058;25.586;2024-03-23T01:07:55;8.33;;;5.70;;
7831;SDS011;3961;42.058;25.586;2024-03-23T01:10:20;9.20;;;6.33;;
7831;SDS011;3961;42.058;25.586;2024-03-23T01:12:45;10.13;;;6.40;;
7831;SDS011;3961;42.058;25.586;2024-03-23T01:15:11;8.67;;;5.70;;
7831;SDS011;3961;42.058;25.586;2024-03-23T01:17:36;8.07;;;6.03;;
7831;SDS011;3961;42.058;25.586;2024-03-23T01:20:01;8.57;;;6.60;;
7831;SDS011;3961;42.058;25.586;2024-03-23T01:22:27;11.10;;;7.33;;
7831;SDS011;3961;42.058;25.586;2024-03-23T01:24:52;9.47;;;6.73;;
7831;SDS011;3961;42.058;25.586;2024-03-23T01:27:17;9.77;;;6.03;;
7831;SDS011;3961;42.058;25.586;2024-03-23T01:29:43;9.10;;;5.97;;
7831;SDS011;3961;42.058;25.586;2024-03-23T01:32:08;11.37;;;6.50;;
7831;SDS011;3961;42.058;25.586;2024-03-23T01:34:33;9.57;;;5.63;;
7831;SDS011;3961;42.058;25.586;2024-03-23T01:36:59;8.90;;;5.10;;
7831;SDS011;3961;42.058;25.586;2024-03-23T01:39:24;8.00;;;5.17;;
7831;SDS011;3961;42.058;25.586;2024-03-23T01:41:50;7.67;;;5.43;;
7831;SDS011;3961;42.058;25.586;2024-03-23T01:44:15;8.63;;;5.50;;
7831;SDS011;3961;42.058;25.586;2024-03-23T01:46:41;8.40;;;5.40;;
7831;SDS011;3961;42.058;25.586;2024-03-23T01:49:07;7.43;;;5.20;;
7831;SDS011;3961;42.058;25.586;2024-03-23T01:51:33;6.67;;;4.73;;
7831;SDS011;3961;42.058;25.586;2024-03-23T01:53:58;6.30;;;4.87;;
7831;SDS011;3961;42.058;25.586;2024-03-23T01:56:27;6.80;;;4.80;;
7831;SDS011;3961;42.058;25.586;2024-03-23T01:58:53;7.60;;;5.77;;
7831;SDS011;3961;42.058;25.586;2024-03-23T02:01:19;9.27;;;5.37;;
7831;SDS011;3961;42.058;25.586;2024-03-23T02:03:44;5.97;;;4.90;;
7831;SDS011;3961;42.058;25.586;2024-03-23T02:06:09;7.23;;;5.17;;
7831;SDS011;3961;42.058;25.586;2024-03-23T02:08:35;7.23;;;4.90;;
7831;SDS011;3961;42.058;25.586;2024-03-23T02:11:00;7.40;;;5.03;;
7831;SDS011;3961;42.058;25.586;2024-03-23T02:13:25;11.13;;;6.00;;
7831;SDS011;3961;42.058;25.586;2024-03-23T02:15:50;7.70;;;5.40;;
7831;SDS011;3961;42.058;25.586;2024-03-23T02:18:16;6.67;;;5.27;;
7831;SDS011;3961;42.058;25.586;2024-03-23T02:20:41;9.00;;;5.20;;
7831;SDS011;3961;42.058;25.586;2024-03-23T02:23:16;6.97;;;5.70;;
7831;SDS011;3961;42.058;25.586;2024-03-23T02:25:41;6.67;;;5.00;;
7831;SDS011;3961;42.058;25.586;2024-03-23T02:28:06;7.33;;;5.07;;
7831;SDS011;3961;42.058;25.586;2024-03-23T02:30:32;6.97;;;4.63;;
7831;SDS011;3961;42.058;25.586;2024-03-23T02:32:57;6.60;;;4.47;;
7831;SDS011;3961;42.058;25.586;2024-03-23T02:35:23;10.43;;;4.97;;
7831;SDS011;3961;42.058;25.586;2024-03-23T02:37:48;7.70;;;5.03;;
7831;SDS011;3961;42.058;25.586;2024-03-23T02:40:14;8.97;;;5.17;;
7831;SDS011;3961;42.058;25.586;2024-03-23T02:42:40;9.20;;;5.20;;
7831;SDS011;3961;42.058;25.586;2024-03-23T02:45:05;6.13;;;4.97;;
7831;SDS011;3961;42.058;25.586;2024-03-23T02:47:30;8.57;;;4.93;;
7831;SDS011;3961;42.058;25.586;2024-03-23T02:49:56;8.47;;;5.43;;
7831;SDS011;3961;42.058;25.586;2024-03-23T02:52:21;9.67;;;4.90;;
7831;SDS011;3961;42.058;25.586;2024-03-23T02:54:46;8.40;;;5.73;;
7831;SDS011;3961;42.058;25.586;2024-03-23T02:57:11;6.77;;;5.10;;
7831;SDS011;3961;42.058;25.586;2024-03-23T02:59:37;6.20;;;5.00;;
7831;SDS011;3961;42.058;25.586;2024-03-23T03:02:02;6.23;;;5.00;;
7831;SDS011;3961;42.058;25.586;2024-03-23T03:04:29;8.90;;;5.77;;
7831;SDS011;3961;42.058;25.586;2024-03-23T03:06:54;8.37;;;5.67;;
7831;SDS011;3961;42.058;25.586;2024-03-23T03:09:20;7.70;;;5.23;;
7831;SDS011;3961;42.058;25.586;2024-03-23T03:11:46;8.03;;;5.63;;
7831;SDS011;3961;42.058;25.586;2024-03-23T03:14:11;9.73;;;5.30;;
7831;SDS011;3961;42.058;25.586;2024-03-23T03:16:37;7.67;;;5.20;;
7831;SDS011;3961;42.058;25.586;2024-03-23T03:19:02;7.67;;;5.47;;
7831;SDS011;3961;42.058;25.586;2024-03-23T03:21:28;7.90;;;5.50;;
7831;SDS011;3961;42.058;25.586;2024-03-23T03:23:53;10.97;;;5.60;;
7831;SDS011;3961;42.058;25.586;2024-03-23T03:26:21;8.17;;;5.57;;
7831;SDS011;3961;42.058;25.586;2024-03-23T03:28:46;9.67;;;5.90;;
7831;SDS011;3961;42.058;25.586;2024-03-23T03:31:15;7.83;;;5.67;;
7831;SDS011;3961;42.058;25.586;2024-03-23T03:33:40;8.43;;;5.80;;
7831;SDS011;3961;42.058;25.586;2024-03-23T03:36:06;8.77;;;6.47;;
7831;SDS011;3961;42.058;25.586;2024-03-23T03:38:31;7.53;;;5.33;;
7831;SDS011;3961;42.058;25.586;2024-03-23T03:40:56;8.63;;;5.87;;
7831;SDS011;3961;42.058;25.586;2024-03-23T03:43:23;7.80;;;5.33;;
7831;SDS011;3961;42.058;25.586;2024-03-23T03:45:55;10.30;;;5.57;;
7831;SDS011;3961;42.058;25.586;2024-03-23T03:48:21;8.63;;;5.67;;
7831;SDS011;3961;42.058;25.586;2024-03-23T03:50:47;9.07;;;5.83;;
7831;SDS011;3961;42.058;25.586;2024-03-23T03:53:12;9.23;;;6.10;;
7831;SDS011;3961;42.058;25.586;2024-03-23T03:55:37;10.30;;;5.50;;
7831;SDS011;3961;42.058;25.586;2024-03-23T03:58:03;8.07;;;5.73;;
7831;SDS011;3961;42.058;25.586;2024-03-23T04:00:29;11.03;;;5.80;;
7831;SDS011;3961;42.058;25.586;2024-03-23T04:02:55;9.23;;;5.57;;
7831;SDS011;3961;42.058;25.586;2024-03-23T04:05:20;10.03;;;6.20;;
7831;SDS011;3961;42.058;25.586;2024-03-23T04:07:46;10.53;;;6.33;;
7831;SDS011;3961;42.058;25.586;2024-03-23T04:10:11;8.43;;;5.70;;
7831;SDS011;3961;42.058;25.586;2024-03-23T04:12:36;8.90;;;5.30;;
7831;SDS011;3961;42.058;25.586;2024-03-23T04:15:01;6.67;;;5.07;;
7831;SDS011;3961;42.058;25.586;2024-03-23T04:17:29;8.60;;;5.33;;
7831;SDS011;3961;42.058;25.586;2024-03-23T04:19:57;10.43;;;5.43;;
7831;SDS011;3961;42.058;25.586;2024-03-23T04:22:22;9.13;;;5.60;;
7831;SDS011;3961;42.058;25.586;2024-03-23T04:24:49;8.83;;;5.40;;
7831;SDS011;3961;42.058;25.586;2024-03-23T04:27:15;11.43;;;6.77;;
7831;SDS011;3961;42.058;25.586;2024-03-23T04:29:40;7.13;;;5.33;;
7831;SDS011;3961;42.058;25.586;2024-03-23T04:32:05;9.83;;;6.10;;
7831;SDS011;3961;42.058;25.586;2024-03-23T04:34:30;8.20;;;5.70;;
7831;SDS011;3961;42.058;25.586;2024-03-23T04:36:58;10.17;;;5.80;;
7831;SDS011;3961;42.058;25.586;2024-03-23T04:39:23;10.33;;;6.03;;
7831;SDS011;3961;42.058;25.586;2024-03-23T04:41:48;11.00;;;5.70;;
7831;SDS011;3961;42.058;25.586;2024-03-23T04:44:13;11.93;;;6.17;;
7831;SDS011;3961;42.058;25.586;2024-03-23T04:46:39;11.97;;;6.13;;
7831;SDS011;3961;42.058;25.586;2024-03-23T04:49:04;15.13;;;6.77;;
7831;SDS011;3961;42.058;25.586;2024-03-23T04:51:34;10.03;;;5.87;;
7831;SDS011;3961;42.058;25.586;2024-03-23T04:54:00;10.27;;;5.70;;
7831;SDS011;3961;42.058;25.586;2024-03-23T04:56:25;9.50;;;6.00;;
7831;SDS011;3961;42.058;25.586;2024-03-23T04:58:50;9.87;;;5.40;;
7831;SDS011;3961;42.058;25.586;2024-03-23T05:01:15;8.77;;;5.53;;
7831;SDS011;3961;42.058;25.586;2024-03-23T05:03:41;10.50;;;6.20;;
7831;SDS011;3961;42.058;25.586;2024-03-23T05:06:06;7.93;;;5.33;;
7831;SDS011;3961;42.058;25.586;2024-03-23T05:08:32;8.63;;;6.30;;
7831;SDS011;3961;42.058;25.586;2024-03-23T05:10:57;9.40;;;5.53;;
7831;SDS011;3961;42.058;25.586;2024-03-23T05:13:22;12.63;;;5.93;;
7831;SDS011;3961;42.058;25.586;2024-03-23T05:15:54;7.60;;;5.70;;
7831;SDS011;3961;42.058;25.586;2024-03-23T05:18:19;9.13;;;5.87;;
7831;SDS011;3961;42.058;25.586;2024-03-23T05:20:45;8.27;;;5.47;;
7831;SDS011;3961;42.058;25.586;2024-03-23T05:23:10;8.77;;;5.93;;
7831;SDS011;3961;42.058;25.586;2024-03-23T05:25:35;7.77;;;5.37;;
7831;SDS011;3961;42.058;25.586;2024-03-23T05:28:01;10.77;;;6.03;;
7831;SDS011;3961;42.058;25.586;2024-03-23T05:30:26;12.37;;;6.23;;
7831;SDS011;3961;42.058;25.586;2024-03-23T05:32:51;7.87;;;6.13;;
7831;SDS011;3961;42.058;25.586;2024-03-23T05:35:16;8.07;;;6.00;;
7831;SDS011;3961;42.058;25.586;2024-03-23T05:37:42;8.20;;;6.43;;
7831;SDS011;3961;42.058;25.586;2024-03-23T05:40:07;7.63;;;6.00;;
7831;SDS011;3961;42.058;25.586;2024-03-23T05:42:34;9.10;;;6.50;;
7831;SDS011;3961;42.058;25.586;2024-03-23T05:44:59;10.57;;;6.43;;
7831;SDS011;3961;42.058;25.586;2024-03-23T05:47:24;9.20;;;6.23;;
7831;SDS011;3961;42.058;25.586;2024-03-23T05:49:50;10.20;;;6.27;;
7831;SDS011;3961;42.058;25.586;2024-03-23T05:52:16;10.67;;;7.20;;
7831;SDS011;3961;42.058;25.586;2024-03-23T05:54:42;9.03;;;6.60;;
7831;SDS011;3961;42.058;25.586;2024-03-23T05:57:08;8.47;;;6.67;;
7831;SDS011;3961;42.058;25.586;2024-03-23T05:59:33;10.20;;;6.50;;
7831;SDS011;3961;42.058;25.586;2024-03-23T06:01:59;9.63;;;7.23;;
7831;SDS011;3961;42.058;25.586;2024-03-23T06:04:24;10.47;;;7.17;;
7831;SDS011;3961;42.058;25.586;2024-03-23T06:06:50;11.77;;;7.00;;
7831;SDS011;3961;42.058;25.586;2024-03-23T06:09:17;14.10;;;7.50;;
7831;SDS011;3961;42.058;25.586;2024-03-23T06:11:42;10.10;;;6.83;;
7831;SDS011;3961;42.058;25.586;2024-03-23T06:14:07;12.03;;;7.27;;
7831;SDS011;3961;42.058;25.586;2024-03-23T06:16:33;12.77;;;8.00;;
7831;SDS011;3961;42.058;25.586;2024-03-23T06:18:58;12.50;;;7.13;;
7831;SDS011;3961;42.058;25.586;2024-03-23T06:21:23;11.43;;;6.67;;
7831;SDS011;3961;42.058;25.586;2024-03-23T06:23:51;9.77;;;7.40;;
7831;SDS011;3961;42.058;25.586;2024-03-23T06:26:20;11.33;;;7.33;;
7831;SDS011;3961;42.058;25.586;2024-03-23T06:28:45;9.97;;;6.93;;
7831;SDS011;3961;42.058;25.586;2024-03-23T06:31:11;12.00;;;7.13;;
7831;SDS011;3961;42.058;25.586;2024-03-23T06:33:36;10.00;;;7.23;;
7831;SDS011;3961;42.058;25.586;2024-03-23T06:36:02;19.13;;;7.87;;
7831;SDS011;3961;42.058;25.586;2024-03-23T06:38:28;11.73;;;7.37;;
7831;SDS011;3961;42.058;25.586;2024-03-23T06:40:53;12.33;;;7.07;;
7831;SDS011;3961;42.058;25.586;2024-03-23T06:43:19;11.33;;;6.63;;
7831;SDS011;3961;42.058;25.586;2024-03-23T06:45:44;12.57;;;7.27;;
7831;SDS011;3961;42.058;25.586;2024-03-23T06:48:09;11.47;;;7.10;;
7831;SDS011;3961;42.058;25.586;2024-03-23T06:50:34;11.27;;;7.40;;
7831;SDS011;3961;42.058;25.586;2024-03-23T06:53:00;15.03;;;7.67;;
7831;SDS011;3961;42.058;25.586;2024-03-23T06:55:27;11.40;;;6.93;;
7831;SDS011;3961;42.058;25.586;2024-03-23T06:57:52;11.30;;;7.10;;
7831;SDS011;3961;42.058;25.586;2024-03-23T07:00:18;9.93;;;7.60;;
7831;SDS011;3961;42.058;25.586;2024-03-23T07:02:43;15.00;;;7.03;;
7831;SDS011;3961;42.058;25.586;2024-03-23T07:05:12;11.77;;;6.87;;
7831;SDS011;3961;42.058;25.586;2024-03-23T07:07:38;9.23;;;7.07;;
7831;SDS011;3961;42.058;25.586;2024-03-23T07:10:04;10.20;;;6.60;;
7831;SDS011;3961;42.058;25.586;2024-03-23T07:12:29;11.80;;;7.27;;
7831;SDS011;3961;42.058;25.586;2024-03-23T07:14:54;13.37;;;7.13;;
7831;SDS011;3961;42.058;25.586;2024-03-23T07:17:20;10.30;;;7.73;;
7831;SDS011;3961;42.058;25.586;2024-03-23T07:19:46;13.47;;;7.30;;
7831;SDS011;3961;42.058;25.586;2024-03-23T07:22:11;9.80;;;6.97;;
7831;SDS011;3961;42.058;25.586;2024-03-23T07:24:36;9.73;;;7.27;;
7831;SDS011;3961;42.058;25.586;2024-03-23T07:27:04;15.27;;;9.37;;
7831;SDS011;3961;42.058;25.586;2024-03-23T07:29:29;9.43;;;6.53;;
7831;SDS011;3961;42.058;25.586;2024-03-23T07:31:55;11.00;;;7.03;;
7831;SDS011;3961;42.058;25.586;2024-03-23T07:34:20;9.13;;;6.83;;
7831;SDS011;3961;42.058;25.586;2024-03-23T07:36:45;8.93;;;6.80;;
7831;SDS011;3961;42.058;25.586;2024-03-23T07:39:10;9.27;;;6.60;;
7831;SDS011;3961;42.058;25.586;2024-03-23T07:41:36;10.53;;;6.10;;
7831;SDS011;3961;42.058;25.586;2024-03-23T07:44:02;10.10;;;6.80;;
7831;SDS011;3961;42.058;25.586;2024-03-23T07:46:27;8.93;;;6.67;;
7831;SDS011;3961;42.058;25.586;2024-03-23T07:48:52;15.00;;;7.00;;
7831;SDS011;3961;42.058;25.586;2024-03-23T07:51:20;7.90;;;6.13;;
7831;SDS011;3961;42.058;25.586;2024-03-23T07:53:45;10.50;;;6.37;;
7831;SDS011;3961;42.058;25.586;2024-03-23T07:56:14;9.40;;;6.50;;
7831;SDS011;3961;42.058;25.586;2024-03-23T07:58:40;11.33;;;7.07;;
7831;SDS011;3961;42.058;25.586;2024-03-23T08:01:06;9.70;;;6.50;;
7831;SDS011;3961;42.058;25.586;2024-03-23T08:03:35;10.47;;;6.57;;
7831;SDS011;3961;42.058;25.586;2024-03-23T08:06:10;8.77;;;6.70;;
7831;SDS011;3961;42.058;25.586;2024-03-23T08:08:35;7.73;;;6.00;;
7831;SDS011;3961;42.058;25.586;2024-03-23T08:11:00;9.40;;;6.83;;
7831;SDS011;3961;42.058;25.586;2024-03-23T08:13:26;10.00;;;6.43;;
7831;SDS011;3961;42.058;25.586;2024-03-23T08:15:51;10.33;;;6.23;;
7831;SDS011;3961;42.058;25.586;2024-03-23T08:18:16;8.20;;;6.03;;
7831;SDS011;3961;42.058;25.586;2024-03-23T08:20:42;8.87;;;6.30;;
7831;SDS011;3961;42.058;25.586;2024-03-23T08:23:07;7.60;;;5.87;;
7831;SDS011;3961;42.058;25.586;2024-03-23T08:25:33;16.53;;;5.80;;
7831;SDS011;3961;42.058;25.586;2024-03-23T08:27:58;9.30;;;5.33;;
7831;SDS011;3961;42.058;25.586;2024-03-23T08:30:24;7.73;;;5.90;;
7831;SDS011;3961;42.058;25.586;2024-03-23T08:32:49;9.87;;;5.60;;
7831;SDS011;3961;42.058;25.586;2024-03-23T08:35:14;7.13;;;5.40;;
7831;SDS011;3961;42.058;25.586;2024-03-23T08:37:40;7.27;;;5.63;;
7831;SDS011;3961;42.058;25.586;2024-03-23T08:40:05;9.20;;;5.33;;
7831;SDS011;3961;42.058;25.586;2024-03-23T08:42:31;8.10;;;5.60;;
7831;SDS011;3961;42.058;25.586;2024-03-23T08:44:56;7.97;;;5.77;;
7831;SDS011;3961;42.058;25.586;2024-03-23T08:47:22;6.43;;;5.37;;
7831;SDS011;3961;42.058;25.586;2024-03-23T08:49:47;9.27;;;5.80;;
7831;SDS011;3961;42.058;25.586;2024-03-23T08:52:12;7.07;;;5.07;;
7831;SDS011;3961;42.058;25.586;2024-03-23T08:54:37;6.80;;;5.00;;
7831;SDS011;3961;42.058;25.586;2024-03-23T08:57:03;8.90;;;5.73;;
7831;SDS011;3961;42.058;25.586;2024-03-23T08:59:28;11.50;;;5.87;;
7831;SDS011;3961;42.058;25.586;2024-03-23T09:01:53;6.70;;;5.20;;
7831;SDS011;3961;42.058;25.586;2024-03-23T09:04:19;6.50;;;5.00;;
7831;SDS011;3961;42.058;25.586;2024-03-23T09:06:44;8.50;;;5.80;;
7831;SDS011;3961;42.058;25.586;2024-03-23T09:09:09;7.97;;;5.43;;
7831;SDS011;3961;42.058;25.586;2024-03-23T09:11:35;11.80;;;5.73;;
7831;SDS011;3961;42.058;25.586;2024-03-23T09:14:00;7.87;;;5.63;;
7831;SDS011;3961;42.058;25.586;2024-03-23T09:16:25;7.60;;;5.50;;
7831;SDS011;3961;42.058;25.586;2024-03-23T09:18:51;5.67;;;4.90;;
7831;SDS011;3961;42.058;25.586;2024-03-23T09:21:17;6.50;;;5.13;;
7831;SDS011;3961;42.058;25.586;2024-03-23T09:23:45;6.03;;;4.80;;
7831;SDS011;3961;42.058;25.586;2024-03-23T09:26:10;6.93;;;5.00;;
7831;SDS011;3961;42.058;25.586;2024-03-23T09:28:36;7.40;;;6.20;;
7831;SDS011;3961;42.058;25.586;2024-03-23T09:33:29;8.37;;;5.53;;
7831;SDS011;3961;42.058;25.586;2024-03-23T09:35:55;8.70;;;4.87;;
7831;SDS011;3961;42.058;25.586;2024-03-23T09:38:21;8.40;;;4.87;;
7831;SDS011;3961;42.058;25.586;2024-03-23T09:40:46;6.27;;;5.10;;
7831;SDS011;3961;42.058;25.586;2024-03-23T09:43:13;8.83;;;5.13;;
7831;SDS011;3961;42.058;25.586;2024-03-23T09:45:39;7.27;;;4.87;;
7831;SDS011;3961;42.058;25.586;2024-03-23T09:48:04;6.60;;;5.40;;
7831;SDS011;3961;42.058;25.586;2024-03-23T09:50:30;8.43;;;5.40;;
7831;SDS011;3961;42.058;25.586;2024-03-23T09:52:56;7.50;;;5.27;;
7831;SDS011;3961;42.058;25.586;2024-03-23T09:55:21;5.97;;;4.97;;
7831;SDS011;3961;42.058;25.586;2024-03-23T09:57:47;11.83;;;5.87;;
7831;SDS011;3961;42.058;25.586;2024-03-23T10:00:12;13.43;;;5.40;;
7831;SDS011;3961;42.058;25.586;2024-03-23T10:02:37;8.73;;;5.17;;
7831;SDS011;3961;42.058;25.586;2024-03-23T10:05:03;6.50;;;5.17;;
7831;SDS011;3961;42.058;25.586;2024-03-23T10:07:29;7.97;;;5.00;;
7831;SDS011;3961;42.058;25.586;2024-03-23T10:09:54;7.70;;;4.90;;
7831;SDS011;3961;42.058;25.586;2024-03-23T10:12:20;8.00;;;5.07;;
7831;SDS011;3961;42.058;25.586;2024-03-23T10:14:46;7.83;;;4.90;;
7831;SDS011;3961;42.058;25.586;2024-03-23T10:19:43;6.37;;;4.80;;
7831;SDS011;3961;42.058;25.586;2024-03-23T10:22:09;8.30;;;4.47;;
7831;SDS011;3961;42.058;25.586;2024-03-23T10:24:35;7.27;;;4.57;;
7831;SDS011;3961;42.058;25.586;2024-03-23T10:27:00;6.67;;;4.60;;
7831;SDS011;3961;42.058;25.586;2024-03-23T10:29:25;7.57;;;4.30;;
7831;SDS011;3961;42.058;25.586;2024-03-23T10:31:53;6.87;;;4.40;;
7831;SDS011;3961;42.058;25.586;2024-03-23T10:34:24;7.77;;;4.00;;
7831;SDS011;3961;42.058;25.586;2024-03-23T10:36:50;4.97;;;4.20;;
7831;SDS011;3961;42.058;25.586;2024-03-23T10:39:17;6.53;;;4.00;;
7831;SDS011;3961;42.058;25.586;2024-03-23T10:41:43;6.43;;;4.00;;
7831;SDS011;3961;42.058;25.586;2024-03-23T10:44:09;6.37;;;3.80;;
7831;SDS011;3961;42.058;25.586;2024-03-23T10:46:35;11.27;;;4.13;;
7831;SDS011;3961;42.058;25.586;2024-03-23T10:49:02;4.63;;;3.80;;
7831;SDS011;3961;42.058;25.586;2024-03-23T10:51:28;6.57;;;4.10;;
7831;SDS011;3961;42.058;25.586;2024-03-23T10:53:53;6.73;;;4.00;;
7831;SDS011;3961;42.058;25.586;2024-03-23T10:56:20;8.60;;;4.07;;
7831;SDS011;3961;42.058;25.586;2024-03-23T10:58:47;5.67;;;4.27;;
7831;SDS011;3961;42.058;25.586;2024-03-23T11:01:13;5.90;;;4.00;;
7831;SDS011;3961;42.058;25.586;2024-03-23T11:03:38;4.90;;;4.03;;
7831;SDS011;3961;42.058;25.586;2024-03-23T11:06:07;6.10;;;4.13;;
7831;SDS011;3961;42.058;25.586;2024-03-23T11:08:36;5.70;;;4.37;;
7831;SDS011;3961;42.058;25.586;2024-03-23T11:11:17;7.40;;;4.00;;
7831;SDS011;3961;42.058;25.586;2024-03-23T11:13:43;5.27;;;3.80;;
7831;SDS011;3961;42.058;25.586;2024-03-23T11:18:43;5.07;;;4.30;;
7831;SDS011;3961;42.058;25.586;2024-03-23T11:21:10;5.53;;;3.63;;
7831;SDS011;3961;42.058;25.586;2024-03-23T11:23:36;5.17;;;3.90;;
7831;SDS011;3961;42.058;25.586;2024-03-23T11:26:01;6.30;;;4.17;;
7831;SDS011;3961;42.058;25.586;2024-03-23T11:28:26;22.63;;;5.53;;
7831;SDS011;3961;42.058;25.586;2024-03-23T11:30:52;5.30;;;3.70;;
7831;SDS011;3961;42.058;25.586;2024-03-23T11:33:17;8.47;;;4.43;;
7831;SDS011;3961;42.058;25.586;2024-03-23T11:35:42;4.40;;;3.57;;
7831;SDS011;3961;42.058;25.586;2024-03-23T11:38:08;5.20;;;4.20;;
7831;SDS011;3961;42.058;25.586;2024-03-23T11:40:38;4.73;;;3.90;;
7831;SDS011;3961;42.058;25.586;2024-03-23T11:43:04;6.17;;;3.67;;
7831;SDS011;3961;42.058;25.586;2024-03-23T11:45:51;5.67;;;3.40;;
7831;SDS011;3961;42.058;25.586;2024-03-23T11:48:20;4.83;;;3.20;;
7831;SDS011;3961;42.058;25.586;2024-03-23T11:50:46;3.77;;;3.23;;
7831;SDS011;3961;42.058;25.586;2024-03-23T11:53:21;4.30;;;3.40;;
7831;SDS011;3961;42.058;25.586;2024-03-23T11:58:13;8.00;;;3.13;;
7831;SDS011;3961;42.058;25.586;2024-03-23T12:00:38;4.37;;;3.07;;
7831;SDS011;3961;42.058;25.586;2024-03-23T12:03:04;7.20;;;3.37;;
7831;SDS011;3961;42.058;25.586;2024-03-23T12:05:33;4.10;;;3.30;;
7831;SDS011;3961;42.058;25.586;2024-03-23T12:10:47;3.43;;;2.70;;
7831;SDS011;3961;42.058;25.586;2024-03-23T12:13:14;3.57;;;3.00;;
7831;SDS011;3961;42.058;25.586;2024-03-23T12:15:40;3.07;;;2.50;;
7831;SDS011;3961;42.058;25.586;2024-03-23T12:18:08;6.60;;;2.80;;
7831;SDS011;3961;42.058;25.586;2024-03-23T12:20:34;3.37;;;2.90;;
7831;SDS011;3961;42.058;25.586;2024-03-23T12:23:06;3.33;;;2.90;;
7831;SDS011;3961;42.058;25.586;2024-03-23T12:25:31;3.83;;;2.73;;
7831;SDS011;3961;42.058;25.586;2024-03-23T12:27:59;4.43;;;3.53;;
7831;SDS011;3961;42.058;25.586;2024-03-23T12:30:25;5.97;;;3.90;;
7831;SDS011;3961;42.058;25.586;2024-03-23T12:32:50;5.10;;;3.20;;
7831;SDS011;3961;42.058;25.586;2024-03-23T12:35:16;4.10;;;3.07;;
7831;SDS011;3961;42.058;25.586;2024-03-23T12:37:41;4.40;;;3.10;;
7831;SDS011;3961;42.058;25.586;2024-03-23T12:40:06;5.27;;;3.47;;
7831;SDS011;3961;42.058;25.586;2024-03-23T12:42:32;3.87;;;3.10;;
7831;SDS011;3961;42.058;25.586;2024-03-23T12:44:58;4.50;;;3.17;;
7831;SDS011;3961;42.058;25.586;2024-03-23T12:47:23;3.07;;;2.60;;
7831;SDS011;3961;42.058;25.586;2024-03-23T12:49:48;7.00;;;3.57;;
7831;SDS011;3961;42.058;25.586;2024-03-23T12:52:14;3.97;;;3.20;;
7831;SDS011;3961;42.058;25.586;2024-03-23T12:54:40;4.50;;;3.50;;
7831;SDS011;3961;42.058;25.586;2024-03-23T12:57:05;3.00;;;2.80;;
7831;SDS011;3961;42.058;25.586;2024-03-23T12:59:30;6.30;;;2.80;;
7831;SDS011;3961;42.058;25.586;2024-03-23T13:01:55;5.30;;;3.03;;
7831;SDS011;3961;42.058;25.586;2024-03-23T13:04:21;3.83;;;2.53;;
7831;SDS011;3961;42.058;25.586;2024-03-23T13:06:47;3.40;;;2.50;;
7831;SDS011;3961;42.058;25.586;2024-03-23T13:09:12;3.10;;;2.80;;
7831;SDS011;3961;42.058;25.586;2024-03-23T13:11:37;4.80;;;2.87;;
7831;SDS011;3961;42.058;25.586;2024-03-23T13:14:03;4.17;;;2.87;;
7831;SDS011;3961;42.058;25.586;2024-03-23T13:16:29;2.93;;;2.63;;
7831;SDS011;3961;42.058;25.586;2024-03-23T13:18:54;2.73;;;2.50;;
7831;SDS011;3961;42.058;25.586;2024-03-23T13:21:19;3.17;;;2.77;;
7831;SDS011;3961;42.058;25.586;2024-03-23T13:23:47;3.33;;;2.70;;
7831;SDS011;3961;42.058;25.586;2024-03-23T13:26:15;3.87;;;2.57;;
7831;SDS011;3961;42.058;25.586;2024-03-23T13:28:40;5.30;;;2.87;;
7831;SDS011;3961;42.058;25.586;2024-03-23T13:31:06;2.87;;;2.57;;
7831;SDS011;3961;42.058;25.586;2024-03-23T13:33:31;4.03;;;2.50;;
7831;SDS011;3961;42.058;25.586;2024-03-23T13:35:57;3.10;;;2.47;;
7831;SDS011;3961;42.058;25.586;2024-03-23T13:38:23;3.20;;;2.63;;
7831;SDS011;3961;42.058;25.586;2024-03-23T13:40:55;4.73;;;2.53;;
7831;SDS011;3961;42.058;25.586;2024-03-23T13:43:24;3.40;;;2.70;;
7831;SDS011;3961;42.058;25.586;2024-03-23T13:45:53;4.83;;;2.10;;
7831;SDS011;3961;42.058;25.586;2024-03-23T13:48:22;4.07;;;2.43;;
7831;SDS011;3961;42.058;25.586;2024-03-23T13:50:56;3.73;;;2.43;;
7831;SDS011;3961;42.058;25.586;2024-03-23T13:53:21;2.47;;;2.27;;
7831;SDS011;3961;42.058;25.586;2024-03-23T13:55:48;3.13;;;2.60;;
7831;SDS011;3961;42.058;25.586;2024-03-23T13:58:14;4.27;;;2.80;;
7831;SDS011;3961;42.058;25.586;2024-03-23T14:00:39;2.60;;;2.40;;
7831;SDS011;3961;42.058;25.586;2024-03-23T14:03:05;4.67;;;2.73;;
7831;SDS011;3961;42.058;25.586;2024-03-23T14:05:30;2.40;;;2.20;;
7831;SDS011;3961;42.058;25.586;2024-03-23T14:07:56;2.50;;;2.30;;
7831;SDS011;3961;42.058;25.586;2024-03-23T14:10:21;3.47;;;2.37;;
7831;SDS011;3961;42.058;25.586;2024-03-23T14:12:46;3.27;;;2.23;;
7831;SDS011;3961;42.058;25.586;2024-03-23T14:15:12;4.97;;;2.13;;
7831;SDS011;3961;42.058;25.586;2024-03-23T14:17:37;3.47;;;2.30;;
7831;SDS011;3961;42.058;25.586;2024-03-23T14:20:03;3.43;;;2.73;;
7831;SDS011;3961;42.058;25.586;2024-03-23T14:22:30;3.80;;;2.30;;
7831;SDS011;3961;42.058;25.586;2024-03-23T14:24:55;2.77;;;2.30;;
7831;SDS011;3961;42.058;25.586;2024-03-23T14:27:21;2.37;;;1.87;;
7831;SDS011;3961;42.058;25.586;2024-03-23T14:29:49;2.40;;;2.20;;
7831;SDS011;3961;42.058;25.586;2024-03-23T14:32:14;2.53;;;2.17;;
7831;SDS011;3961;42.058;25.586;2024-03-23T14:34:40;2.30;;;2.00;;
7831;SDS011;3961;42.058;25.586;2024-03-23T14:37:05;2.20;;;2.00;;
7831;SDS011;3961;42.058;25.586;2024-03-23T14:39:31;2.30;;;2.00;;
7831;SDS011;3961;42.058;25.586;2024-03-23T14:41:59;2.90;;;2.47;;
7831;SDS011;3961;42.058;25.586;2024-03-23T14:44:24;2.97;;;2.30;;
7831;SDS011;3961;42.058;25.586;2024-03-23T14:46:49;2.83;;;1.90;;
7831;SDS011;3961;42.058;25.586;2024-03-23T14:49:15;2.07;;;1.87;;
7831;SDS011;3961;42.058;25.586;2024-03-23T14:51:42;2.50;;;2.10;;
7831;SDS011;3961;42.058;25.586;2024-03-23T14:54:08;2.70;;;2.50;;
7831;SDS011;3961;42.058;25.586;2024-03-23T14:56:33;2.80;;;2.17;;
7831;SDS011;3961;42.058;25.586;2024-03-23T14:58:59;3.33;;;2.40;;
7831;SDS011;3961;42.058;25.586;2024-03-23T15:01:25;2.97;;;2.27;;
7831;SDS011;3961;42.058;25.586;2024-03-23T15:03:50;2.80;;;1.97;;
7831;SDS011;3961;42.058;25.586;2024-03-23T15:06:18;3.40;;;2.20;;
7831;SDS011;3961;42.058;25.586;2024-03-23T15:08:43;2.20;;;2.00;;
7831;SDS011;3961;42.058;25.586;2024-03-23T15:11:09;4.17;;;2.13;;
7831;SDS011;3961;42.058;25.586;2024-03-23T15:13:34;3.10;;;2.00;;
7831;SDS011;3961;42.058;25.586;2024-03-23T15:16:00;4.70;;;2.63;;
7831;SDS011;3961;42.058;25.586;2024-03-23T15:18:25;3.83;;;2.40;;
7831;SDS011;3961;42.058;25.586;2024-03-23T15:20:51;3.97;;;2.10;;
7831;SDS011;3961;42.058;25.586;2024-03-23T15:23:17;2.67;;;1.93;;
7831;SDS011;3961;42.058;25.586;2024-03-23T15:25:42;2.53;;;2.03;;
7831;SDS011;3961;42.058;25.586;2024-03-23T15:28:07;4.33;;;2.30;;
7831;SDS011;3961;42.058;25.586;2024-03-23T15:30:33;4.10;;;2.60;;
7831;SDS011;3961;42.058;25.586;2024-03-23T15:32:58;3.03;;;2.23;;
7831;SDS011;3961;42.058;25.586;2024-03-23T15:35:24;2.67;;;2.20;;
7831;SDS011;3961;42.058;25.586;2024-03-23T15:37:49;3.40;;;2.10;;
7831;SDS011;3961;42.058;25.586;2024-03-23T15:40:15;2.60;;;2.20;;
7831;SDS011;3961;42.058;25.586;2024-03-23T15:42:40;2.53;;;1.90;;
7831;SDS011;3961;42.058;25.586;2024-03-23T15:45:06;2.73;;;2.20;;
7831;SDS011;3961;42.058;25.586;2024-03-23T15:47:32;6.97;;;2.43;;
7831;SDS011;3961;42.058;25.586;2024-03-23T15:49:57;3.50;;;2.33;;
7831;SDS011;3961;42.058;25.586;2024-03-23T15:52:23;3.77;;;2.40;;
7831;SDS011;3961;42.058;25.586;2024-03-23T15:54:48;2.57;;;1.93;;
7831;SDS011;3961;42.058;25.586;2024-03-23T15:57:13;3.77;;;3.03;;